Time;durP1;ratioP1;P1;durP2;ratioP2;P2;SDS_P1;SDS_P2;PMS_P1;PMS_P2;Temp;Humidity;BMP_temperature;BMP_pressure;BME280_temperature;BME280_humidity;BME280_pressure;Samples;Min_cycle;Max_cycle;Signal;HPM_P1;HPM_P2
2022/04/20 00:02:21;;;;;;;46.05;19.45;;;;;;;9.12;60.71;99708.09;5038906;28;20049;-57
2022/04/20 00:04:55;;;;;;;48.00;21.10;;;;;;;9.33;59.93;99707.63;5038930;28;20049;-56
2022/04/20 00:07:26;;;;;;;44.80;19.70;;;;;;;9.49;59.63;99710.81;5038594;28;20071;-56
2022/04/20 00:09:57;;;;;;;42.47;21.45;;;;;;;9.65;59.35;99698.28;5033059;28;20104;-57
2022/04/20 00:12:27;;;;;;;56.78;21.05;;;;;;;9.70;58.87;99686.84;5038737;28;20045;-57
2022/04/20 00:14:58;;;;;;;42.00;21.33;;;;;;;9.85;58.63;99685.66;5038620;28;20363;-56
2022/04/20 00:17:28;;;;;;;43.72;22.35;;;;;;;9.94;58.41;99690.69;5038476;28;20081;-57
2022/04/20 00:20:01;;;;;;;53.00;22.20;;;;;;;10.09;58.08;99678.19;5038569;28;20085;-56
2022/04/20 00:22:31;;;;;;;65.78;31.42;;;;;;;10.16;58.14;99674.53;5038390;28;20113;-56
2022/04/20 00:25:02;;;;;;;68.60;31.48;;;;;;;10.30;57.80;99693.34;5038396;28;20049;-56
2022/04/20 00:27:35;;;;;;;48.92;24.20;;;;;;;10.29;57.37;99675.97;5038239;28;20116;-56
2022/04/20 00:30:08;;;;;;;79.50;42.65;;;;;;;10.29;57.55;99681.19;5038536;28;20045;-56
2022/04/20 00:32:39;;;;;;;69.50;37.72;;;;;;;10.22;57.19;99674.38;5038537;28;20050;-56
2022/04/20 00:35:12;;;;;;;44.13;26.00;;;;;;;10.22;57.36;99663.06;5038363;28;20104;-57
2022/04/20 00:37:43;;;;;;;48.08;23.95;;;;;;;10.04;57.69;99612.16;5038251;28;20124;-56
2022/04/20 00:40:14;;;;;;;46.63;22.25;;;;;;;10.51;57.27;99671.06;5038121;28;20061;-56
2022/04/20 00:42:45;;;;;;;45.22;21.98;;;;;;;10.32;56.55;99655.00;5037407;28;20111;-56
2022/04/20 00:45:15;;;;;;;80.53;41.08;;;;;;;10.48;56.68;99685.94;5037952;28;20275;-57
2022/04/20 00:47:46;;;;;;;50.83;25.38;;;;;;;10.55;56.96;99674.44;5037824;28;20057;-56
2022/04/20 00:50:18;;;;;;;46.45;22.85;;;;;;;10.53;56.50;99663.19;5037866;28;20066;-56
2022/04/20 00:52:49;;;;;;;41.85;22.33;;;;;;;10.47;56.74;99663.34;5037955;28;20103;-55
2022/04/20 00:55:30;;;;;;;54.75;23.42;;;;;;;10.40;56.77;99664.38;5037770;28;20057;-56
2022/04/20 00:58:01;;;;;;;52.13;24.80;;;;;;;10.36;56.81;99654.03;5037651;28;20072;-56
2022/04/20 01:00:32;;;;;;;43.75;22.50;;;;;;;10.34;56.72;99645.38;5036003;28;20124;-56
2022/04/20 01:03:02;;;;;;;54.70;23.35;;;;;;;10.29;57.15;99636.81;5029946;28;20108;-56
2022/04/20 01:05:35;;;;;;;40.88;22.80;;;;;;;10.23;56.88;99602.97;5017255;28;20050;-56
2022/04/20 01:08:06;;;;;;;52.67;22.90;;;;;;;10.44;57.27;99595.53;5005718;28;20054;-56
2022/04/20 01:10:37;;;;;;;59.25;22.27;;;;;;;10.49;56.14;99593.66;5024657;28;20069;-55
2022/04/20 01:13:07;;;;;;;63.30;37.00;;;;;;;10.58;56.79;99578.59;5037780;28;20065;-56
2022/04/20 01:15:38;;;;;;;50.13;27.17;;;;;;;10.67;56.46;99587.91;5037902;28;20273;-55
2022/04/20 01:18:16;;;;;;;49.20;22.15;;;;;;;10.74;56.30;99605.13;5037663;28;20156;-56
2022/04/20 01:20:48;;;;;;;43.33;21.17;;;;;;;10.72;56.24;99625.22;5037399;28;20540;-56
2022/04/20 01:23:19;;;;;;;44.70;21.88;;;;;;;10.79;56.44;99634.59;5037170;28;20053;-56
2022/04/20 01:25:49;;;;;;;43.97;21.67;;;;;;;10.88;56.48;99640.47;5037184;28;20150;-56
2022/04/20 01:28:20;;;;;;;47.22;21.15;;;;;;;11.07;56.13;99628.59;5022478;28;20062;-57
2022/04/20 01:30:51;;;;;;;61.15;31.27;;;;;;;11.19;55.31;99623.03;5017285;28;20097;-54
2022/04/20 01:33:21;;;;;;;73.10;38.58;;;;;;;11.22;54.90;99624.69;5017511;28;20057;-56
2022/04/20 01:35:54;;;;;;;47.40;26.25;;;;;;;11.28;54.82;99616.66;5033750;28;20049;-56
2022/04/20 01:38:24;;;;;;;47.50;23.70;;;;;;;11.35;54.78;99601.66;5037088;28;20080;-55
2022/04/20 01:40:55;;;;;;;51.33;22.17;;;;;;;11.44;55.05;99594.38;5015698;28;20060;-56
2022/04/20 01:43:26;;;;;;;47.50;22.00;;;;;;;11.49;54.20;99585.53;5016209;28;20046;-55
2022/04/20 01:45:56;;;;;;;42.65;21.35;;;;;;;11.52;54.49;99594.13;5016247;28;20050;-56
2022/04/20 01:48:27;;;;;;;45.08;20.60;;;;;;;11.59;54.33;99585.19;5011704;28;20112;-55
2022/04/20 01:53:47;;;;;;;51.90;22.80;;;;;;;11.50;54.15;99582.88;5015209;28;20062;-57
2022/04/20 01:56:17;;;;;;;40.95;20.58;;;;;;;11.53;53.87;99574.94;5016010;28;20034;-56
2022/04/20 01:58:48;;;;;;;44.72;19.75;;;;;;;11.59;53.91;99573.88;5013728;28;20053;-55
2022/04/20 02:04:07;;;;;;;48.90;20.58;;;;;;;11.46;54.07;99562.94;5015276;28;20341;-55
2022/04/20 02:06:40;;;;;;;37.67;18.27;;;;;;;11.41;53.52;99559.63;5015411;28;20065;-54
2022/04/20 02:09:11;;;;;;;42.88;20.27;;;;;;;11.54;54.36;99566.19;5013034;28;20266;-55
2022/04/20 02:11:41;;;;;;;61.38;34.00;;;;;;;11.69;53.95;99559.59;5022602;28;20145;-54
2022/04/20 02:14:12;;;;;;;52.22;26.88;;;;;;;11.61;53.14;99541.53;5023595;28;20052;-54
2022/04/20 02:16:43;;;;;;;49.92;21.80;;;;;;;11.73;53.05;99555.13;5023552;28;20049;-54
2022/04/20 02:19:13;;;;;;;36.45;17.77;;;;;;;11.76;52.27;99549.81;5022169;28;20061;-54
2022/04/20 02:21:46;;;;;;;37.80;17.52;;;;;;;11.86;53.43;99566.91;5022965;28;20054;-54
2022/04/20 02:24:17;;;;;;;43.10;18.52;;;;;;;11.81;51.91;99558.34;5022918;28;20156;-55
2022/04/20 02:26:47;;;;;;;52.22;18.10;;;;;;;11.79;52.65;99550.53;5023040;28;20291;-55
2022/04/20 02:29:18;;;;;;;51.92;19.02;;;;;;;11.91;52.52;99565.03;5022594;28;20050;-54
2022/04/20 02:31:48;;;;;;;54.17;18.25;;;;;;;11.82;52.20;99560.06;5022578;28;20045;-56
2022/04/20 02:34:19;;;;;;;40.60;17.15;;;;;;;11.76;52.44;99539.34;5023080;28;20061;-54
2022/04/20 02:36:52;;;;;;;56.30;19.02;;;;;;;11.75;52.24;99521.91;5023096;28;20259;-54
2022/04/20 02:39:23;;;;;;;41.30;17.85;;;;;;;11.77;51.61;99530.56;5023296;28;20061;-55
2022/04/20 02:41:55;;;;;;;37.63;17.95;;;;;;;11.77;51.88;99530.56;5023144;28;20113;-56
2022/04/20 02:44:26;;;;;;;43.25;18.27;;;;;;;11.88;52.40;99552.03;5022898;28;20068;-56
2022/04/20 02:46:57;;;;;;;39.50;18.15;;;;;;;11.88;52.42;99528.47;5022931;28;20291;-54
2022/04/20 02:49:28;;;;;;;42.63;17.83;;;;;;;11.98;51.48;99518.53;5023026;28;20057;-56
2022/04/20 02:52:00;;;;;;;40.72;16.92;;;;;;;11.92;51.57;99519.59;5022872;28;20108;-55
2022/04/20 02:54:31;;;;;;;39.17;17.10;;;;;;;12.00;51.30;99522.81;5022863;28;20294;-56
2022/04/20 02:57:02;;;;;;;47.08;18.38;;;;;;;12.08;51.85;99535.63;5022133;28;20064;-56
2022/04/20 02:59:32;;;;;;;36.17;18.13;;;;;;;12.06;50.93;99535.72;5022988;28;20432;-56
2022/04/20 03:02:03;;;;;;;38.03;18.10;;;;;;;12.11;51.47;99534.72;5022197;28;20067;-56
2022/04/20 03:04:34;;;;;;;39.38;16.52;;;;;;;12.20;51.24;99537.84;5024201;28;20045;-55
2022/04/20 03:07:07;;;;;;;38.60;17.48;;;;;;;12.17;51.19;99534.50;5026564;28;20105;-57
2022/04/20 03:09:38;;;;;;;55.85;17.55;;;;;;;12.00;51.38;99486.16;5026294;28;20056;-56
2022/04/20 03:12:10;;;;;;;36.50;17.38;;;;;;;12.30;51.02;99510.44;5026350;28;20073;-56
2022/04/20 03:14:41;;;;;;;41.53;16.90;;;;;;;12.31;50.93;99490.34;5026555;28;20080;-54
2022/04/20 03:17:11;;;;;;;49.45;18.35;;;;;;;12.32;50.78;99476.31;5026461;28;20075;-56
2022/04/20 03:19:42;;;;;;;33.05;15.80;;;;;;;12.32;50.46;99484.19;5026587;28;20113;-56
2022/04/20 03:22:14;;;;;;;42.30;18.52;;;;;;;12.42;51.35;99456.72;5026397;28;20063;-55
2022/04/20 03:24:45;;;;;;;40.40;17.40;;;;;;;12.43;50.81;99447.97;5026093;28;20060;-56
2022/04/20 03:27:16;;;;;;;38.63;16.92;;;;;;;12.61;50.26;99471.78;5025740;28;20152;-56
2022/04/20 03:29:47;;;;;;;37.78;16.00;;;;;;;12.62;49.58;99463.00;5025867;28;20057;-55
2022/04/20 03:32:18;;;;;;;38.78;16.40;;;;;;;12.52;49.53;99458.09;5026025;28;20054;-56
2022/04/20 03:34:49;;;;;;;35.60;16.05;;;;;;;12.52;49.18;99439.75;5025664;28;20087;-56
2022/04/20 03:37:21;;;;;;;41.13;16.27;;;;;;;12.51;49.78;99440.69;5026012;28;20351;-57
2022/04/20 03:39:52;;;;;;;44.00;16.55;;;;;;;12.55;49.63;99435.31;5025976;28;20057;-56
2022/04/20 03:42:23;;;;;;;38.85;16.02;;;;;;;12.38;49.48;99433.31;5025725;28;20041;-56
2022/04/20 03:44:54;;;;;;;38.80;16.95;;;;;;;12.41;50.24;99431.47;5025660;28;20049;-56
2022/04/20 03:47:25;;;;;;;39.30;16.90;;;;;;;12.43;50.10;99427.03;5025504;28;20050;-55
2022/04/20 03:49:55;;;;;;;45.80;18.23;;;;;;;12.44;50.10;99418.22;5025844;28;20064;-56
2022/04/20 03:52:28;;;;;;;44.88;16.98;;;;;;;12.43;50.34;99421.78;5025868;28;20100;-56
2022/04/20 03:54:58;;;;;;;37.40;17.40;;;;;;;12.44;50.02;99413.00;5025737;28;20077;-56
2022/04/20 03:57:29;;;;;;;41.50;16.25;;;;;;;12.39;50.00;99373.00;5025536;28;20324;-57
2022/04/20 04:00:00;;;;;;;39.30;18.13;;;;;;;12.43;50.17;99411.28;5025511;28;20061;-57
2022/04/20 04:02:31;;;;;;;49.00;17.23;;;;;;;12.49;50.30;99413.66;5025747;28;20061;-56
2022/04/20 04:05:01;;;;;;;45.45;16.20;;;;;;;12.57;50.10;99417.78;5022828;28;20065;-55
2022/04/20 04:07:37;;;;;;;42.10;16.45;;;;;;;12.57;50.20;99407.28;5024481;28;20079;-55
2022/04/20 04:10:09;;;;;;;39.22;16.33;;;;;;;12.63;50.02;99417.53;5024061;28;20218;-56
2022/04/20 04:12:40;;;;;;;62.10;17.00;;;;;;;12.71;49.53;99400.59;5024987;28;20053;-56
2022/04/20 04:15:11;;;;;;;42.00;16.20;;;;;;;12.66;49.39;99404.31;5025101;28;20109;-56
2022/04/20 04:17:41;;;;;;;51.88;15.75;;;;;;;12.64;49.96;99398.28;5024737;28;20084;-56
2022/04/20 04:20:13;;;;;;;39.70;15.07;;;;;;;12.60;49.71;99401.94;5025401;28;20102;-57
2022/04/20 04:22:46;;;;;;;45.28;15.85;;;;;;;12.52;49.50;99416.16;5025460;28;20061;-57
2022/04/20 04:25:16;;;;;;;33.35;15.20;;;;;;;12.47;49.62;99412.03;5025051;28;20060;-56
2022/04/20 04:27:47;;;;;;;46.45;16.40;;;;;;;12.46;50.01;99405.94;5025142;28;20053;-57
2022/04/20 04:30:18;;;;;;;42.35;16.30;;;;;;;12.43;50.09;99390.34;5024621;28;20069;-56
2022/04/20 04:32:49;;;;;;;39.40;16.42;;;;;;;12.51;49.88;99398.75;5024490;28;20056;-56
2022/04/20 04:35:19;;;;;;;41.00;15.70;;;;;;;12.65;50.01;99392.13;5024914;28;20973;-56
2022/04/20 04:37:52;;;;;;;40.03;16.08;;;;;;;12.64;50.06;99393.03;5024454;28;20049;-57
2022/04/20 04:40:23;;;;;;;79.95;18.27;;;;;;;12.62;49.58;99394.88;5024773;28;20054;-57
2022/04/20 04:42:53;;;;;;;38.50;14.77;;;;;;;12.62;49.98;99387.00;5024731;28;20057;-56
2022/04/20 04:50:59;;;;;;;53.78;16.73;;;;;;;12.37;50.20;99384.47;5024250;28;20288;-56
2022/04/20 04:53:31;;;;;;;56.92;15.85;;;;;;;12.37;50.09;99393.16;5023286;28;20559;-56
2022/04/20 04:56:10;;;;;;;42.28;17.17;;;;;;;12.38;50.42;99402.75;5024760;28;20046;-57
2022/04/20 04:58:41;;;;;;;46.47;15.90;;;;;;;12.33;50.37;99388.97;5024268;28;20073;-56
2022/04/20 05:01:12;;;;;;;41.55;16.25;;;;;;;12.32;50.79;99387.25;5024775;28;20054;-57
2022/04/20 05:03:42;;;;;;;38.47;16.17;;;;;;;12.33;50.49;99375.88;5024196;28;20061;-56
2022/04/20 05:06:13;;;;;;;34.92;14.82;;;;;;;12.35;50.54;99376.66;5023400;28;20148;-57
2022/04/20 05:08:45;;;;;;;38.25;14.73;;;;;;;12.43;50.81;99374.63;5024185;28;20053;-56
2022/04/20 05:11:16;;;;;;;32.92;13.70;;;;;;;12.51;50.85;99346.34;5024322;28;20061;-56
2022/04/20 05:13:48;;;;;;;40.08;14.65;;;;;;;12.50;50.08;99334.16;5024222;28;20112;-56
2022/04/20 05:16:19;;;;;;;36.22;14.82;;;;;;;12.45;50.35;99358.81;5023959;28;20077;-56
2022/04/20 05:18:55;;;;;;;32.08;14.75;;;;;;;12.38;50.81;99345.13;5023909;28;20099;-57
2022/04/20 05:21:25;;;;;;;36.17;14.80;;;;;;;12.43;50.49;99345.78;5024059;28;20083;-58
2022/04/20 05:23:58;;;;;;;40.53;15.65;;;;;;;12.49;51.32;99345.53;5023827;28;20332;-56
2022/04/20 05:26:29;;;;;;;34.60;14.32;;;;;;;12.44;50.88;99339.63;5023401;28;20121;-56
2022/04/20 05:29:00;;;;;;;34.53;14.32;;;;;;;12.25;50.75;99349.94;5023844;28;20546;-57
2022/04/20 05:31:31;;;;;;;38.17;14.55;;;;;;;12.11;51.17;99351.41;5023451;28;20050;-56
2022/04/20 05:34:02;;;;;;;38.83;15.18;;;;;;;11.98;50.97;99346.63;5023960;28;20062;-56
2022/04/20 05:42:07;;;;;;;34.85;14.80;;;;;;;11.75;51.49;99328.22;5022959;28;20472;-56
2022/04/20 05:44:38;;;;;;;35.70;15.13;;;;;;;11.73;51.79;99303.88;5022171;28;20045;-53
2022/04/20 05:47:09;;;;;;;37.08;14.73;;;;;;;11.98;51.73;99325.69;5023046;28;20554;-54
2022/04/20 05:49:40;;;;;;;32.83;14.13;;;;;;;11.94;51.00;99318.84;5023217;28;20295;-55
2022/04/20 05:52:11;;;;;;;33.47;13.70;;;;;;;11.79;50.96;99295.81;5023201;28;20045;-54
2022/04/20 05:54:43;;;;;;;36.70;14.23;;;;;;;12.00;50.24;99329.06;5022745;28;20081;-55
2022/04/20 05:57:14;;;;;;;35.13;14.32;;;;;;;11.99;50.81;99306.44;5022835;28;20054;-55
2022/04/20 05:59:45;;;;;;;33.67;14.57;;;;;;;12.07;50.69;99309.59;5023035;28;20100;-55
2022/04/20 06:02:15;;;;;;;34.38;14.40;;;;;;;12.12;50.37;99269.31;5021931;28;20103;-57
2022/04/20 06:04:46;;;;;;;30.70;13.48;;;;;;;12.11;49.15;99306.91;5023225;28;20057;-57
2022/04/20 06:07:17;;;;;;;36.58;14.23;;;;;;;12.11;49.78;99330.47;5022785;28;20355;-56
2022/04/20 06:09:49;;;;;;;41.30;14.02;;;;;;;12.11;49.86;99319.97;5021944;28;20114;-57
2022/04/20 06:12:21;;;;;;;32.67;13.80;;;;;;;12.12;49.10;99316.44;5022561;28;20068;-58
2022/04/20 06:14:52;;;;;;;33.40;12.82;;;;;;;12.15;49.55;99311.94;5022366;28;20091;-57
2022/04/20 06:17:23;;;;;;;32.50;14.00;;;;;;;12.19;49.16;99315.31;5022065;28;20121;-58
2022/04/20 06:19:53;;;;;;;41.58;13.85;;;;;;;12.20;49.11;99311.75;5021425;28;20096;-57
2022/04/20 06:22:24;;;;;;;37.95;14.30;;;;;;;12.18;49.50;99316.19;5022583;28;20046;-58
2022/04/20 06:24:56;;;;;;;35.13;13.38;;;;;;;12.13;49.12;99308.53;5022129;28;20061;-57
2022/04/20 06:27:31;;;;;;;40.22;14.00;;;;;;;12.12;49.41;99279.78;5021921;28;20112;-57
2022/04/20 06:30:02;;;;;;;38.40;14.77;;;;;;;12.16;49.51;99281.38;5021853;28;20082;-58
2022/04/20 06:32:33;;;;;;;30.08;13.00;;;;;;;12.11;49.13;99299.88;5022002;28;20049;-57
2022/04/20 06:35:03;;;;;;;38.22;14.20;;;;;;;12.08;49.99;99298.22;5022283;28;20047;-57
2022/04/20 06:37:34;;;;;;;30.15;14.15;;;;;;;12.03;50.39;99312.38;5022161;28;20116;-57
2022/04/20 06:40:07;;;;;;;39.92;13.18;;;;;;;12.02;49.39;99290.59;5024254;28;20347;-58
2022/04/20 06:42:39;;;;;;;40.45;14.75;;;;;;;12.03;49.70;99310.66;5026182;28;20060;-58
2022/04/20 06:45:11;;;;;;;36.20;14.32;;;;;;;11.97;49.84;99282.06;5024981;28;20347;-58
2022/04/20 06:47:41;;;;;;;32.83;13.48;;;;;;;11.72;50.07;99268.16;5025935;28;20057;-58
2022/04/20 06:50:12;;;;;;;34.15;12.70;;;;;;;11.89;49.12;99299.81;5025951;28;20091;-58
2022/04/20 06:58:35;;;;;;;31.30;12.32;;;;;;;11.84;50.49;99317.44;5025328;28;20053;-58
2022/04/20 07:01:07;;;;;;;38.88;12.05;;;;;;;11.81;49.85;99307.09;5024623;28;20042;-58
2022/04/20 07:03:38;;;;;;;38.10;11.75;;;;;;;11.72;50.02;99302.19;5025354;28;20058;-58
2022/04/20 07:06:09;;;;;;;31.48;11.68;;;;;;;11.74;49.77;99327.38;5025269;28;20254;-58
2022/04/20 07:08:40;;;;;;;48.80;12.48;;;;;;;11.70;50.28;99324.94;5025607;28;20683;-58
2022/04/20 07:11:12;;;;;;;37.75;11.68;;;;;;;11.69;49.71;99328.47;5025209;28;20123;-58
2022/04/20 07:13:43;;;;;;;33.83;11.30;;;;;;;11.63;49.60;99314.69;5025446;28;20057;-58
2022/04/20 07:16:14;;;;;;;35.20;11.88;;;;;;;11.59;49.55;99328.78;5025450;28;20057;-58
2022/04/20 07:18:45;;;;;;;41.65;11.68;;;;;;;11.57;49.53;99333.22;5025129;28;20068;-58
2022/04/20 07:21:15;;;;;;;39.72;11.63;;;;;;;11.59;49.83;99318.31;5026395;28;20121;-58
2022/04/20 07:23:46;;;;;;;30.63;10.93;;;;;;;11.58;49.76;99323.59;5026387;28;20054;-58
2022/04/20 07:26:19;;;;;;;35.50;11.07;;;;;;;11.56;49.63;99344.59;5025237;28;20057;-58
2022/04/20 07:28:49;;;;;;;32.65;11.07;;;;;;;11.57;49.39;99335.81;5026212;28;20057;-58
2022/04/20 07:31:20;;;;;;;31.13;10.45;;;;;;;11.53;49.07;99343.84;5025436;28;20061;-58
2022/04/20 07:33:50;;;;;;;30.75;11.35;;;;;;;11.57;49.27;99322.75;5024555;28;20061;-59
2022/04/20 07:36:22;;;;;;;52.08;12.20;;;;;;;11.56;48.75;99344.59;5025759;28;20046;-59
2022/04/20 07:38:52;;;;;;;37.30;11.80;;;;;;;11.52;49.15;99353.44;5026018;28;20113;-59
2022/04/20 07:41:25;;;;;;;34.58;11.48;;;;;;;11.50;49.07;99350.03;5025425;28;20325;-59
2022/04/20 07:43:56;;;;;;;33.03;11.43;;;;;;;11.43;49.59;99361.59;5025535;28;20057;-58
2022/04/20 07:46:26;;;;;;;38.42;10.57;;;;;;;11.30;50.19;99358.56;5025477;28;20365;-58
2022/04/20 07:48:57;;;;;;;43.28;11.45;;;;;;;11.16;50.20;99358.19;5025339;28;20368;-58
2022/04/20 07:51:28;;;;;;;34.42;10.90;;;;;;;11.06;50.67;99362.84;5025487;28;20062;-58
2022/04/20 07:53:58;;;;;;;47.88;11.52;;;;;;;10.97;50.95;99371.00;5025306;28;20054;-58
2022/04/20 07:56:31;;;;;;;35.65;10.40;;;;;;;10.94;51.32;99368.47;5025160;28;20625;-59
2022/04/20 07:59:01;;;;;;;35.58;9.63;;;;;;;10.89;51.52;99375.63;5025678;28;20041;-58
2022/04/20 08:01:32;;;;;;;32.25;9.75;;;;;;;10.83;51.17;99375.78;5025155;28;20042;-58
2022/04/20 08:04:02;;;;;;;26.40;9.38;;;;;;;10.77;51.29;99380.31;5025498;28;20217;-58
2022/04/20 08:06:33;;;;;;;32.03;9.18;;;;;;;10.70;51.45;99378.78;5025230;28;20049;-59
2022/04/20 08:09:04;;;;;;;40.35;9.88;;;;;;;10.45;51.26;99341.28;5025378;28;20061;-58
2022/04/20 08:11:36;;;;;;;30.02;10.07;;;;;;;10.61;50.87;99379.09;5025034;28;20053;-59
2022/04/20 08:14:13;;;;;;;74.60;10.73;;;;;;;10.57;50.73;99390.53;5025086;28;20056;-59
2022/04/20 08:16:46;;;;;;;80.55;11.82;;;;;;;10.51;51.06;99388.13;5024991;28;20113;-58
2022/04/20 08:19:17;;;;;;;44.65;10.68;;;;;;;10.48;50.05;99389.06;5024631;28;20406;-58
2022/04/20 08:21:47;;;;;;;32.78;10.23;;;;;;;10.42;50.51;99377.94;5025489;28;20057;-59
2022/04/20 08:24:18;;;;;;;28.73;8.90;;;;;;;10.34;50.59;99392.06;5025246;28;20053;-58
2022/04/20 08:26:50;;;;;;;30.33;9.77;;;;;;;10.32;50.63;99399.09;5024644;28;20068;-58
2022/04/20 08:29:21;;;;;;;34.78;10.50;;;;;;;10.28;50.57;99383.56;5025842;28;20092;-58
2022/04/20 08:31:51;;;;;;;44.90;10.65;;;;;;;10.24;50.55;99388.00;5025038;28;20060;-57
2022/04/20 08:34:22;;;;;;;29.90;10.05;;;;;;;10.16;50.78;99403.03;5024892;28;20042;-58
2022/04/20 08:36:56;;;;;;;25.08;9.32;;;;;;;10.06;50.78;99394.59;5024813;28;20100;-57
2022/04/20 08:39:27;;;;;;;22.88;9.43;;;;;;;10.05;51.08;99378.97;5024786;28;20355;-58
2022/04/20 08:42:02;;;;;;;30.77;10.07;;;;;;;10.03;50.71;99391.19;5024521;28;20080;-58
2022/04/20 08:44:37;;;;;;;28.58;9.20;;;;;;;9.98;50.74;99406.13;5024393;28;20049;-58
2022/04/20 08:47:12;;;;;;;23.75;8.98;;;;;;;9.93;51.11;99401.03;5022802;28;20360;-58
2022/04/20 08:49:44;;;;;;;28.35;9.98;;;;;;;9.85;51.24;99416.91;5023738;28;20068;-58
2022/04/20 08:55:09;;;;;;;35.33;10.13;;;;;;;9.31;51.12;99354.88;5024119;28;20286;-58
2022/04/20 08:57:43;;;;;;;24.52;9.65;;;;;;;9.78;51.00;99423.19;5024703;28;20046;-58
2022/04/20 09:00:20;;;;;;;30.27;10.13;;;;;;;9.67;51.27;99420.00;5024123;28;20056;-58
2022/04/20 09:02:52;;;;;;;62.55;11.95;;;;;;;9.72;51.00;99416.38;5023960;28;20321;-58
2022/04/20 09:05:24;;;;;;;32.30;10.07;;;;;;;9.65;51.50;99429.63;5023746;28;20048;-58
2022/04/20 09:07:55;;;;;;;27.33;9.95;;;;;;;9.57;51.54;99423.75;5023730;28;20061;-58
2022/04/20 09:10:27;;;;;;;26.27;9.63;;;;;;;9.56;51.48;99422.03;5023225;28;20081;-58
2022/04/20 09:13:07;;;;;;;41.15;10.75;;;;;;;9.29;51.52;99372.31;5023117;28;20077;-58
2022/04/20 09:15:39;;;;;;;25.55;9.85;;;;;;;9.49;51.22;99422.19;5022306;28;20067;-58
2022/04/20 09:18:11;;;;;;;33.58;9.98;;;;;;;9.50;51.32;99410.84;5023161;28;20213;-58
2022/04/20 09:20:42;;;;;;;29.52;8.57;;;;;;;9.46;51.47;99414.47;5023325;28;20351;-58
2022/04/20 09:23:16;;;;;;;31.77;9.60;;;;;;;9.45;51.29;99410.13;5023573;28;20067;-58
2022/04/20 09:25:52;;;;;;;30.27;10.55;;;;;;;9.32;50.91;99408.72;5023317;28;20069;-59
2022/04/20 09:28:26;;;;;;;29.50;10.60;;;;;;;9.59;50.51;99427.19;5023542;28;20382;-58
2022/04/20 09:30:57;;;;;;;28.15;9.32;;;;;;;9.58;50.78;99420.25;5023339;28;20288;-58
2022/04/20 09:33:43;;;;;;;29.60;9.75;;;;;;;9.48;50.52;99425.72;5023249;28;20117;-59
2022/04/20 09:36:15;;;;;;;27.20;10.15;;;;;;;9.48;50.60;99423.09;5023475;28;20062;-59
2022/04/20 09:39:03;;;;;;;27.58;9.98;;;;;;;9.54;50.81;99434.28;5022372;28;20067;-58
2022/04/20 09:41:34;;;;;;;29.00;10.18;;;;;;;9.53;51.04;99442.97;5023121;28;20053;-58
2022/04/20 09:44:14;;;;;;;36.50;10.75;;;;;;;9.52;50.76;99436.91;5023023;28;20041;-58
2022/04/20 09:50:00;;;;;;;25.50;10.23;;;;;;;9.44;50.93;99439.72;5023208;28;20056;-58
2022/04/20 09:52:38;;;;;;;29.08;9.32;;;;;;;9.24;50.69;99405.47;5022963;28;20085;-58
2022/04/20 09:55:12;;;;;;;31.95;9.65;;;;;;;9.28;50.88;99407.06;5023066;28;20085;-58
2022/04/20 09:57:43;;;;;;;28.95;10.75;;;;;;;9.48;50.77;99446.56;5022885;28;20116;-57
2022/04/20 10:00:16;;;;;;;27.42;10.23;;;;;;;9.40;50.97;99438.06;5023207;28;20049;-58
2022/04/20 10:02:50;;;;;;;30.48;9.18;;;;;;;9.23;50.94;99419.38;5023034;28;20069;-58
2022/04/20 10:05:24;;;;;;;28.52;10.13;;;;;;;9.43;50.92;99453.63;5023486;28;20068;-59
2022/04/20 10:07:59;;;;;;;36.08;10.75;;;;;;;8.84;50.83;99359.50;5022895;28;20057;-58
2022/04/20 10:10:30;;;;;;;27.67;9.13;;;;;;;9.36;50.97;99446.88;5022791;28;20348;-58
2022/04/20 10:13:03;;;;;;;32.88;11.07;;;;;;;9.42;50.98;99457.13;5022803;28;20057;-59
2022/04/20 10:18:27;;;;;;;30.10;10.05;;;;;;;9.38;50.87;99471.13;5023284;28;20479;-58
2022/04/20 10:20:59;;;;;;;30.90;10.13;;;;;;;8.96;50.93;99406.13;5022906;28;20060;-58
2022/04/20 10:23:30;;;;;;;30.05;10.13;;;;;;;9.37;51.19;99474.66;5023159;28;20076;-58
2022/04/20 10:26:02;;;;;;;31.13;10.35;;;;;;;9.39;51.06;99464.19;5023154;28;20061;-58
2022/04/20 10:28:40;;;;;;;29.05;10.40;;;;;;;9.39;50.77;99464.19;5023126;28;20272;-58
2022/04/20 10:31:31;;;;;;;24.90;9.88;;;;;;;9.36;51.05;99472.94;5022440;28;20483;-58
2022/04/20 10:34:03;;;;;;;24.20;10.60;;;;;;;9.34;50.88;99469.50;5023100;28;20107;-58
2022/04/20 10:36:35;;;;;;;31.08;10.15;;;;;;;9.26;50.99;99466.22;5021782;28;20083;-59
2022/04/20 10:39:22;;;;;;;25.70;9.60;;;;;;;9.29;50.97;99469.63;5023066;28;20320;-59
2022/04/20 10:42:24;;;;;;;29.73;9.73;;;;;;;9.32;50.98;99465.22;5023074;28;20073;-57
2022/04/20 10:45:05;;;;;;;31.00;9.57;;;;;;;9.33;51.13;99470.38;4961731;28;20211;-57
2022/04/20 10:47:40;;;;;;;25.98;9.73;;;;;;;9.16;50.97;99451.69;5015495;28;20524;-58
2022/04/20 10:50:16;;;;;;;26.35;11.35;;;;;;;9.32;50.88;99481.72;5021796;28;20260;-58
2022/04/20 10:52:52;;;;;;;32.35;10.10;;;;;;;9.33;50.77;99478.22;5022119;28;20061;-58
2022/04/20 10:55:55;;;;;;;24.15;9.45;;;;;;;9.31;50.80;99485.22;5021955;28;20057;-57
2022/04/20 10:58:26;;;;;;;28.38;10.93;;;;;;;9.32;50.84;99475.66;5023050;28;20121;-57
2022/04/20 11:01:13;;;;;;;36.25;10.80;;;;;;;9.10;50.80;99425.78;5023034;28;20371;-58
2022/04/20 11:04:12;;;;;;;26.58;10.35;;;;;;;9.39;50.58;99472.88;5022343;28;20050;-57
2022/04/20 11:07:17;;;;;;;26.38;10.00;;;;;;;9.35;50.49;99476.44;4983828;28;20060;-58
2022/04/20 11:09:58;;;;;;;35.50;10.50;;;;;;;9.34;50.56;99469.50;5020686;28;20088;-59
2022/04/20 11:18:40;;;;;;;23.73;9.15;;;;;;;9.30;50.60;99493.94;5022073;28;20061;-57
2022/04/20 11:21:21;;;;;;;29.02;9.75;;;;;;;9.29;50.54;99493.06;5022117;28;20533;-57
2022/04/20 11:23:57;;;;;;;36.20;10.88;;;;;;;9.28;50.66;99498.31;5022673;28;20517;-57
2022/04/20 11:26:30;;;;;;;26.67;9.63;;;;;;;9.14;50.66;99479.56;5024647;28;20071;-57
2022/04/20 11:29:03;;;;;;;31.73;10.30;;;;;;;8.68;50.76;99415.44;5025800;28;20263;-57
2022/04/20 11:31:42;;;;;;;23.15;9.77;;;;;;;9.25;50.71;99495.78;5025825;28;20054;-57
2022/04/20 11:34:14;;;;;;;28.30;9.07;;;;;;;9.15;50.38;99483.88;5025964;28;20057;-57
2022/04/20 11:36:47;;;;;;;29.42;9.27;;;;;;;9.37;50.38;99495.50;5025739;28;20113;-57
2022/04/20 11:39:20;;;;;;;34.20;10.18;;;;;;;9.39;49.93;99493.72;5025750;28;20061;-57
2022/04/20 11:41:52;;;;;;;29.65;9.85;;;;;;;9.39;50.20;99493.72;5025092;28;20069;-57
2022/04/20 11:44:24;;;;;;;31.38;10.38;;;;;;;9.37;50.21;99487.69;5025681;28;20083;-57
2022/04/20 11:46:57;;;;;;;21.52;9.50;;;;;;;9.39;50.03;99488.50;5026013;28;20057;-57
2022/04/20 11:49:33;;;;;;;32.33;9.98;;;;;;;9.47;49.29;99470.91;5025485;28;20108;-58
2022/04/20 11:52:09;;;;;;;28.55;9.48;;;;;;;9.50;49.61;99476.06;5025610;28;20228;-57
2022/04/20 11:54:41;;;;;;;26.90;9.32;;;;;;;9.54;49.45;99492.50;5025640;28;20268;-58
2022/04/20 11:57:11;;;;;;;30.73;9.35;;;;;;;9.56;49.30;99490.72;5025626;28;20076;-58
2022/04/20 11:59:45;;;;;;;28.13;9.32;;;;;;;9.47;49.54;99494.38;5025722;28;20100;-58
2022/04/20 12:02:18;;;;;;;26.15;9.40;;;;;;;9.48;49.45;99485.69;5025549;28;20069;-58
2022/04/20 12:04:49;;;;;;;29.48;10.15;;;;;;;9.48;49.23;99493.50;5025454;28;20061;-58
2022/04/20 12:07:22;;;;;;;28.67;9.88;;;;;;;9.52;49.46;99493.44;5025167;28;20046;-58
2022/04/20 12:09:54;;;;;;;22.10;8.60;;;;;;;9.49;49.37;99495.22;5025310;28;20045;-58
2022/04/20 12:12:44;;;;;;;30.30;10.63;;;;;;;9.54;49.26;99486.44;5025623;28;20080;-58
2022/04/20 12:15:14;;;;;;;31.30;10.13;;;;;;;9.60;48.97;99496.69;5024194;28;20049;-58
2022/04/20 12:17:45;;;;;;;24.63;9.57;;;;;;;9.55;48.89;99495.97;5024936;28;20064;-59
2022/04/20 12:20:16;;;;;;;30.63;9.27;;;;;;;9.56;49.07;99490.72;5025151;28;20068;-58
2022/04/20 12:22:49;;;;;;;32.42;9.15;;;;;;;9.60;49.49;99507.13;5025000;28;20394;-58
2022/04/20 12:25:21;;;;;;;33.38;8.85;;;;;;;9.57;48.97;99497.63;5024654;28;20061;-58